sensor_id;sensor_type;location;lat;lon;timestamp;temperature;humidity
43185;DHT22;28803;52.308;19.096;2022-08-19T00:01:40;21.40;99.90
43185;DHT22;28803;52.308;19.096;2022-08-19T00:04:10;21.40;99.90
43185;DHT22;28803;52.308;19.096;2022-08-19T00:06:39;21.30;99.90
43185;DHT22;28803;52.308;19.096;2022-08-19T00:09:09;21.40;99.90
43185;DHT22;28803;52.308;19.096;2022-08-19T00:11:37;21.30;99.90
43185;DHT22;28803;52.308;19.096;2022-08-19T00:14:05;21.30;99.90
43185;DHT22;28803;52.308;19.096;2022-08-19T00:16:33;21.30;99.90
43185;DHT22;28803;52.308;19.096;2022-08-19T00:19:00;21.30;99.90
43185;DHT22;28803;52.308;19.096;2022-08-19T00:21:27;21.20;99.90
43185;DHT22;28803;52.308;19.096;2022-08-19T00:23:55;21.30;99.90
43185;DHT22;28803;52.308;19.096;2022-08-19T00:26:26;21.20;99.90
43185;DHT22;28803;52.308;19.096;2022-08-19T00:28:54;21.20;99.90
43185;DHT22;28803;52.308;19.096;2022-08-19T00:31:22;21.20;99.90
43185;DHT22;28803;52.308;19.096;2022-08-19T00:33:49;21.20;99.90
43185;DHT22;28803;52.308;19.096;2022-08-19T00:36:18;21.20;99.90
43185;DHT22;28803;52.308;19.096;2022-08-19T00:38:46;21.20;99.90
43185;DHT22;28803;52.308;19.096;2022-08-19T00:41:15;21.20;99.90
43185;DHT22;28803;52.308;19.096;2022-08-19T00:43:43;21.10;99.90
43185;DHT22;28803;52.308;19.096;2022-08-19T00:46:10;21.00;99.90
43185;DHT22;28803;52.308;19.096;2022-08-19T00:48:37;20.90;99.90
43185;DHT22;28803;52.308;19.096;2022-08-19T00:51:04;20.70;99.90
43185;DHT22;28803;52.308;19.096;2022-08-19T00:53:32;20.50;99.90
43185;DHT22;28803;52.308;19.096;2022-08-19T00:56:02;20.40;99.90
43185;DHT22;28803;52.308;19.096;2022-08-19T00:58:32;20.20;99.90
43185;DHT22;28803;52.308;19.096;2022-08-19T01:01:02;20.10;99.90
43185;DHT22;28803;52.308;19.096;2022-08-19T01:03:29;20.10;99.90
43185;DHT22;28803;52.308;19.096;2022-08-19T01:06:17;20.00;99.90
43185;DHT22;28803;52.308;19.096;2022-08-19T01:08:47;19.90;99.90
43185;DHT22;28803;52.308;19.096;2022-08-19T01:11:16;19.80;99.90
43185;DHT22;28803;52.308;19.096;2022-08-19T01:13:44;19.70;99.90
43185;DHT22;28803;52.308;19.096;2022-08-19T01:16:18;19.60;99.90
43185;DHT22;28803;52.308;19.096;2022-08-19T01:18:46;19.50;99.90
43185;DHT22;28803;52.308;19.096;2022-08-19T01:21:40;19.50;99.90
43185;DHT22;28803;52.308;19.096;2022-08-19T01:24:09;19.50;99.90
43185;DHT22;28803;52.308;19.096;2022-08-19T01:26:42;19.60;99.90
43185;DHT22;28803;52.308;19.096;2022-08-19T01:29:10;19.80;99.90
43185;DHT22;28803;52.308;19.096;2022-08-19T01:31:38;20.00;99.90
43185;DHT22;28803;52.308;19.096;2022-08-19T01:34:06;20.20;99.90
43185;DHT22;28803;52.308;19.096;2022-08-19T01:36:40;20.30;99.90
43185;DHT22;28803;52.308;19.096;2022-08-19T01:39:11;20.40;99.90
43185;DHT22;28803;52.308;19.096;2022-08-19T01:41:39;20.50;99.90
43185;DHT22;28803;52.308;19.096;2022-08-19T01:44:08;20.50;99.90
43185;DHT22;28803;52.308;19.096;2022-08-19T01:46:47;20.50;99.90
43185;DHT22;28803;52.308;19.096;2022-08-19T01:49:16;20.50;99.90
43185;DHT22;28803;52.308;19.096;2022-08-19T01:51:44;20.50;99.90
43185;DHT22;28803;52.308;19.096;2022-08-19T01:54:12;20.50;99.90
43185;DHT22;28803;52.308;19.096;2022-08-19T01:56:56;20.50;99.90
43185;DHT22;28803;52.308;19.096;2022-08-19T01:59:24;20.50;99.90
43185;DHT22;28803;52.308;19.096;2022-08-19T02:01:51;20.50;99.90
43185;DHT22;28803;52.308;19.096;2022-08-19T02:04:18;20.50;99.90
43185;DHT22;28803;52.308;19.096;2022-08-19T02:06:46;20.50;99.90
43185;DHT22;28803;52.308;19.096;2022-08-19T02:09:12;20.40;99.90
43185;DHT22;28803;52.308;19.096;2022-08-19T02:11:41;20.50;99.90
43185;DHT22;28803;52.308;19.096;2022-08-19T02:14:08;20.40;99.90
43185;DHT22;28803;52.308;19.096;2022-08-19T02:16:36;20.40;99.90
43185;DHT22;28803;52.308;19.096;2022-08-19T02:19:03;20.30;99.90
43185;DHT22;28803;52.308;19.096;2022-08-19T02:21:31;20.30;99.90
43185;DHT22;28803;52.308;19.096;2022-08-19T02:23:59;20.30;99.90
43185;DHT22;28803;52.308;19.096;2022-08-19T02:26:26;20.20;99.90
43185;DHT22;28803;52.308;19.096;2022-08-19T02:28:54;20.20;99.90
43185;DHT22;28803;52.308;19.096;2022-08-19T02:31:24;20.20;99.90
43185;DHT22;28803;52.308;19.096;2022-08-19T02:33:52;20.20;99.90
43185;DHT22;28803;52.308;19.096;2022-08-19T02:36:24;20.00;99.90
43185;DHT22;28803;52.308;19.096;2022-08-19T02:38:52;20.00;99.90
43185;DHT22;28803;52.308;19.096;2022-08-19T02:41:26;20.00;99.90
43185;DHT22;28803;52.308;19.096;2022-08-19T02:43:55;19.90;99.90
43185;DHT22;28803;52.308;19.096;2022-08-19T02:46:46;19.80;99.90
43185;DHT22;28803;52.308;19.096;2022-08-19T02:49:14;19.70;99.90
43185;DHT22;28803;52.308;19.096;2022-08-19T02:51:45;19.60;99.90
43185;DHT22;28803;52.308;19.096;2022-08-19T02:54:13;19.40;99.90
43185;DHT22;28803;52.308;19.096;2022-08-19T02:56:42;19.40;99.90
43185;DHT22;28803;52.308;19.096;2022-08-19T02:59:10;19.40;99.90
43185;DHT22;28803;52.308;19.096;2022-08-19T03:01:40;19.40;99.90
43185;DHT22;28803;52.308;19.096;2022-08-19T03:04:10;19.40;99.90
43185;DHT22;28803;52.308;19.096;2022-08-19T03:06:39;19.40;99.90
43185;DHT22;28803;52.308;19.096;2022-08-19T03:09:06;19.40;99.90
43185;DHT22;28803;52.308;19.096;2022-08-19T03:11:34;19.50;99.90
43185;DHT22;28803;52.308;19.096;2022-08-19T03:14:02;19.50;99.90
43185;DHT22;28803;52.308;19.096;2022-08-19T03:16:33;19.50;99.90
43185;DHT22;28803;52.308;19.096;2022-08-19T03:19:01;19.50;99.90
43185;DHT22;28803;52.308;19.096;2022-08-19T03:21:31;19.60;99.90
43185;DHT22;28803;52.308;19.096;2022-08-19T03:24:00;19.50;99.90
43185;DHT22;28803;52.308;19.096;2022-08-19T03:26:28;19.60;99.90
43185;DHT22;28803;52.308;19.096;2022-08-19T03:28:55;19.60;99.90
43185;DHT22;28803;52.308;19.096;2022-08-19T03:31:26;19.50;99.90
43185;DHT22;28803;52.308;19.096;2022-08-19T03:34:17;19.50;99.90
43185;DHT22;28803;52.308;19.096;2022-08-19T03:36:45;19.50;99.90
43185;DHT22;28803;52.308;19.096;2022-08-19T03:39:13;19.40;99.90
43185;DHT22;28803;52.308;19.096;2022-08-19T03:41:43;19.50;99.90
43185;DHT22;28803;52.308;19.096;2022-08-19T03:44:18;19.40;99.90
43185;DHT22;28803;52.308;19.096;2022-08-19T03:46:50;19.40;99.90
43185;DHT22;28803;52.308;19.096;2022-08-19T03:49:19;19.30;99.90
43185;DHT22;28803;52.308;19.096;2022-08-19T03:51:47;19.30;99.90
43185;DHT22;28803;52.308;19.096;2022-08-19T03:54:21;19.20;99.90
43185;DHT22;28803;52.308;19.096;2022-08-19T03:56:52;19.20;99.90
43185;DHT22;28803;52.308;19.096;2022-08-19T03:59:27;19.20;99.90
43185;DHT22;28803;52.308;19.096;2022-08-19T04:02:00;19.30;99.90
43185;DHT22;28803;52.308;19.096;2022-08-19T04:04:28;19.40;99.90
43185;DHT22;28803;52.308;19.096;2022-08-19T04:06:57;19.50;99.90
43185;DHT22;28803;52.308;19.096;2022-08-19T04:09:25;19.60;99.90
43185;DHT22;28803;52.308;19.096;2022-08-19T04:11:54;19.70;99.90
43185;DHT22;28803;52.308;19.096;2022-08-19T04:14:24;19.80;99.90
43185;DHT22;28803;52.308;19.096;2022-08-19T04:16:52;19.90;99.90
43185;DHT22;28803;52.308;19.096;2022-08-19T04:19:20;19.90;99.90
43185;DHT22;28803;52.308;19.096;2022-08-19T04:21:50;20.00;99.90
43185;DHT22;28803;52.308;19.096;2022-08-19T04:24:18;20.10;99.90
43185;DHT22;28803;52.308;19.096;2022-08-19T04:26:46;20.20;99.90
43185;DHT22;28803;52.308;19.096;2022-08-19T04:29:21;20.30;99.90
43185;DHT22;28803;52.308;19.096;2022-08-19T04:31:54;20.40;99.90
43185;DHT22;28803;52.308;19.096;2022-08-19T04:34:23;20.50;99.90
43185;DHT22;28803;52.308;19.096;2022-08-19T04:36:52;20.60;99.90
43185;DHT22;28803;52.308;19.096;2022-08-19T04:39:25;20.80;99.90
43185;DHT22;28803;52.308;19.096;2022-08-19T04:42:17;20.90;99.90
43185;DHT22;28803;52.308;19.096;2022-08-19T04:45:04;20.90;99.90
43185;DHT22;28803;52.308;19.096;2022-08-19T04:47:39;21.10;99.90
43185;DHT22;28803;52.308;19.096;2022-08-19T04:50:26;21.20;99.90
43185;DHT22;28803;52.308;19.096;2022-08-19T04:52:53;21.30;99.90
43185;DHT22;28803;52.308;19.096;2022-08-19T04:55:22;21.40;99.90
43185;DHT22;28803;52.308;19.096;2022-08-19T04:57:49;21.50;99.90
43185;DHT22;28803;52.308;19.096;2022-08-19T05:00:17;21.50;99.90
43185;DHT22;28803;52.308;19.096;2022-08-19T05:02:44;21.60;99.90
43185;DHT22;28803;52.308;19.096;2022-08-19T05:05:11;21.70;99.90
43185;DHT22;28803;52.308;19.096;2022-08-19T05:07:39;21.70;99.90
43185;DHT22;28803;52.308;19.096;2022-08-19T05:10:07;21.80;99.90
43185;DHT22;28803;52.308;19.096;2022-08-19T05:12:35;22.00;99.90
43185;DHT22;28803;52.308;19.096;2022-08-19T05:15:05;21.90;99.90
43185;DHT22;28803;52.308;19.096;2022-08-19T05:17:33;22.00;99.90
43185;DHT22;28803;52.308;19.096;2022-08-19T05:20:05;22.10;99.90
43185;DHT22;28803;52.308;19.096;2022-08-19T05:22:52;22.20;99.90
43185;DHT22;28803;52.308;19.096;2022-08-19T05:25:20;22.40;99.90
43185;DHT22;28803;52.308;19.096;2022-08-19T05:27:48;22.70;99.90
43185;DHT22;28803;52.308;19.096;2022-08-19T05:30:15;22.80;99.90
43185;DHT22;28803;52.308;19.096;2022-08-19T05:32:43;23.00;99.90
43185;DHT22;28803;52.308;19.096;2022-08-19T05:35:10;23.10;99.90
43185;DHT22;28803;52.308;19.096;2022-08-19T05:37:38;23.20;99.90
43185;DHT22;28803;52.308;19.096;2022-08-19T05:40:08;23.30;99.90
43185;DHT22;28803;52.308;19.096;2022-08-19T05:42:36;23.40;99.90
43185;DHT22;28803;52.308;19.096;2022-08-19T05:45:04;23.50;99.90
43185;DHT22;28803;52.308;19.096;2022-08-19T05:47:31;23.60;99.90
43185;DHT22;28803;52.308;19.096;2022-08-19T05:49:59;23.70;99.90
43185;DHT22;28803;52.308;19.096;2022-08-19T05:52:26;23.80;99.90
43185;DHT22;28803;52.308;19.096;2022-08-19T05:54:56;23.90;99.90
43185;DHT22;28803;52.308;19.096;2022-08-19T05:57:23;24.10;99.90
43185;DHT22;28803;52.308;19.096;2022-08-19T05:59:51;24.20;99.90
43185;DHT22;28803;52.308;19.096;2022-08-19T06:02:29;24.40;99.90
43185;DHT22;28803;52.308;19.096;2022-08-19T06:04:57;24.70;99.90
43185;DHT22;28803;52.308;19.096;2022-08-19T06:07:25;24.80;99.90
43185;DHT22;28803;52.308;19.096;2022-08-19T06:09:52;25.10;99.90
43185;DHT22;28803;52.308;19.096;2022-08-19T06:12:34;25.40;99.90
43185;DHT22;28803;52.308;19.096;2022-08-19T06:15:05;25.90;99.90
43185;DHT22;28803;52.308;19.096;2022-08-19T06:17:33;26.20;99.90
43185;DHT22;28803;52.308;19.096;2022-08-19T06:20:07;26.60;99.90
43185;DHT22;28803;52.308;19.096;2022-08-19T06:22:43;26.50;99.90
43185;DHT22;28803;52.308;19.096;2022-08-19T06:25:12;26.50;99.90
43185;DHT22;28803;52.308;19.096;2022-08-19T06:27:40;26.60;99.90
43185;DHT22;28803;52.308;19.096;2022-08-19T06:30:27;26.70;99.90
43185;DHT22;28803;52.308;19.096;2022-08-19T06:32:55;26.90;99.90
43185;DHT22;28803;52.308;19.096;2022-08-19T06:35:22;27.10;99.90
43185;DHT22;28803;52.308;19.096;2022-08-19T06:37:49;27.60;99.90
43185;DHT22;28803;52.308;19.096;2022-08-19T06:40:16;28.10;99.90
43185;DHT22;28803;52.308;19.096;2022-08-19T06:42:43;28.40;99.90
43185;DHT22;28803;52.308;19.096;2022-08-19T06:45:22;28.90;99.90
43185;DHT22;28803;52.308;19.096;2022-08-19T06:47:51;29.50;98.50
43185;DHT22;28803;52.308;19.096;2022-08-19T06:50:23;29.60;96.50
43185;DHT22;28803;52.308;19.096;2022-08-19T06:52:51;29.40;96.80
43185;DHT22;28803;52.308;19.096;2022-08-19T06:55:19;29.40;95.90
43185;DHT22;28803;52.308;19.096;2022-08-19T06:57:47;29.30;95.90
43185;DHT22;28803;52.308;19.096;2022-08-19T07:00:15;29.50;95.80
43185;DHT22;28803;52.308;19.096;2022-08-19T07:02:43;29.70;95.50
43185;DHT22;28803;52.308;19.096;2022-08-19T07:05:21;29.90;95.40
43185;DHT22;28803;52.308;19.096;2022-08-19T07:07:48;29.80;94.50
43185;DHT22;28803;52.308;19.096;2022-08-19T07:10:17;30.10;93.90
43185;DHT22;28803;52.308;19.096;2022-08-19T07:12:44;29.80;93.80
43185;DHT22;28803;52.308;19.096;2022-08-19T07:15:12;30.00;94.20
43185;DHT22;28803;52.308;19.096;2022-08-19T07:17:39;30.70;93.20
43185;DHT22;28803;52.308;19.096;2022-08-19T07:20:09;31.20;91.10
43185;DHT22;28803;52.308;19.096;2022-08-19T07:22:56;31.50;90.60
43185;DHT22;28803;52.308;19.096;2022-08-19T07:25:23;31.60;89.60
43185;DHT22;28803;52.308;19.096;2022-08-19T07:27:58;30.90;90.70
43185;DHT22;28803;52.308;19.096;2022-08-19T07:30:28;30.40;91.10
43185;DHT22;28803;52.308;19.096;2022-08-19T07:32:57;29.90;92.10
43185;DHT22;28803;52.308;19.096;2022-08-19T07:35:24;30.20;92.70
43185;DHT22;28803;52.308;19.096;2022-08-19T07:37:52;30.60;91.00
43185;DHT22;28803;52.308;19.096;2022-08-19T07:40:20;31.50;90.80
43185;DHT22;28803;52.308;19.096;2022-08-19T07:42:47;32.00;86.20
43185;DHT22;28803;52.308;19.096;2022-08-19T07:45:14;33.00;84.30
43185;DHT22;28803;52.308;19.096;2022-08-19T07:47:42;33.50;78.20
43185;DHT22;28803;52.308;19.096;2022-08-19T07:50:18;34.00;79.70
43185;DHT22;28803;52.308;19.096;2022-08-19T07:52:47;35.10;76.80
43185;DHT22;28803;52.308;19.096;2022-08-19T07:55:19;35.10;72.60
43185;DHT22;28803;52.308;19.096;2022-08-19T07:58:06;35.10;70.40
43185;DHT22;28803;52.308;19.096;2022-08-19T08:00:34;34.70;70.80
43185;DHT22;28803;52.308;19.096;2022-08-19T08:03:01;34.30;71.00
43185;DHT22;28803;52.308;19.096;2022-08-19T08:05:29;33.90;71.80
43185;DHT22;28803;52.308;19.096;2022-08-19T08:08:15;34.30;71.30
43185;DHT22;28803;52.308;19.096;2022-08-19T08:11:16;34.90;69.50
43185;DHT22;28803;52.308;19.096;2022-08-19T08:13:46;34.80;69.50
43185;DHT22;28803;52.308;19.096;2022-08-19T08:16:28;35.30;67.70
43185;DHT22;28803;52.308;19.096;2022-08-19T08:19:14;36.40;65.80
43185;DHT22;28803;52.308;19.096;2022-08-19T08:21:54;37.00;63.50
43185;DHT22;28803;52.308;19.096;2022-08-19T08:24:21;36.60;63.70
43185;DHT22;28803;52.308;19.096;2022-08-19T08:26:58;35.90;65.10
43185;DHT22;28803;52.308;19.096;2022-08-19T08:29:27;36.40;64.90
43185;DHT22;28803;52.308;19.096;2022-08-19T08:32:01;37.20;62.50
43185;DHT22;28803;52.308;19.096;2022-08-19T08:34:34;37.70;62.60
43185;DHT22;28803;52.308;19.096;2022-08-19T08:37:03;37.10;61.10
43185;DHT22;28803;52.308;19.096;2022-08-19T08:39:30;37.40;60.90
43185;DHT22;28803;52.308;19.096;2022-08-19T08:42:30;37.60;60.90
43185;DHT22;28803;52.308;19.096;2022-08-19T08:45:03;37.40;59.80
43185;DHT22;28803;52.308;19.096;2022-08-19T08:47:37;37.60;61.00
43185;DHT22;28803;52.308;19.096;2022-08-19T08:50:41;37.30;60.60
43185;DHT22;28803;52.308;19.096;2022-08-19T08:53:18;37.10;61.20
43185;DHT22;28803;52.308;19.096;2022-08-19T08:55:56;37.70;61.30
43185;DHT22;28803;52.308;19.096;2022-08-19T08:58:31;37.20;60.20
43185;DHT22;28803;52.308;19.096;2022-08-19T09:01:00;36.60;61.60
43185;DHT22;28803;52.308;19.096;2022-08-19T09:03:28;37.20;62.30
43185;DHT22;28803;52.308;19.096;2022-08-19T09:06:02;38.30;61.30
43185;DHT22;28803;52.308;19.096;2022-08-19T09:09:04;39.20;58.50
43185;DHT22;28803;52.308;19.096;2022-08-19T09:12:09;39.30;56.60
43185;DHT22;28803;52.308;19.096;2022-08-19T09:15:00;38.90;57.90
43185;DHT22;28803;52.308;19.096;2022-08-19T09:17:30;38.50;58.50
43185;DHT22;28803;52.308;19.096;2022-08-19T09:20:02;39.00;58.10
43185;DHT22;28803;52.308;19.096;2022-08-19T09:22:31;39.80;56.40
43185;DHT22;28803;52.308;19.096;2022-08-19T09:24:58;39.70;56.50
43185;DHT22;28803;52.308;19.096;2022-08-19T09:27:26;40.10;55.80
43185;DHT22;28803;52.308;19.096;2022-08-19T09:30:23;40.20;56.70
43185;DHT22;28803;52.308;19.096;2022-08-19T09:32:51;40.20;57.10
43185;DHT22;28803;52.308;19.096;2022-08-19T09:35:25;40.00;56.10
43185;DHT22;28803;52.308;19.096;2022-08-19T09:37:54;40.10;55.30
43185;DHT22;28803;52.308;19.096;2022-08-19T09:40:29;39.50;56.50
43185;DHT22;28803;52.308;19.096;2022-08-19T09:43:04;38.60;56.80
43185;DHT22;28803;52.308;19.096;2022-08-19T09:45:37;38.40;57.80
43185;DHT22;28803;52.308;19.096;2022-08-19T09:48:04;38.70;56.90
43185;DHT22;28803;52.308;19.096;2022-08-19T09:50:32;38.30;56.90
43185;DHT22;28803;52.308;19.096;2022-08-19T09:53:01;37.90;59.10
43185;DHT22;28803;52.308;19.096;2022-08-19T09:55:29;38.40;57.60
43185;DHT22;28803;52.308;19.096;2022-08-19T09:58:00;38.10;59.00
43185;DHT22;28803;52.308;19.096;2022-08-19T10:00:27;37.60;61.50
43185;DHT22;28803;52.308;19.096;2022-08-19T10:02:55;36.20;61.60
43185;DHT22;28803;52.308;19.096;2022-08-19T10:05:22;34.70;65.00
43185;DHT22;28803;52.308;19.096;2022-08-19T10:08:09;33.70;66.20
43185;DHT22;28803;52.308;19.096;2022-08-19T10:10:42;32.80;68.80
43185;DHT22;28803;52.308;19.096;2022-08-19T10:13:15;32.40;70.50
43185;DHT22;28803;52.308;19.096;2022-08-19T10:15:42;32.10;71.10
43185;DHT22;28803;52.308;19.096;2022-08-19T10:18:14;32.00;71.50
43185;DHT22;28803;52.308;19.096;2022-08-19T10:20:49;32.10;70.50
43185;DHT22;28803;52.308;19.096;2022-08-19T10:23:20;32.20;71.50
43185;DHT22;28803;52.308;19.096;2022-08-19T10:25:48;32.30;72.30
43185;DHT22;28803;52.308;19.096;2022-08-19T10:28:16;32.30;70.50
43185;DHT22;28803;52.308;19.096;2022-08-19T10:30:45;32.30;71.40
43185;DHT22;28803;52.308;19.096;2022-08-19T10:33:13;32.30;71.90
43185;DHT22;28803;52.308;19.096;2022-08-19T10:36:05;32.30;70.90
43185;DHT22;28803;52.308;19.096;2022-08-19T10:38:32;32.50;72.90
43185;DHT22;28803;52.308;19.096;2022-08-19T10:41:12;32.80;72.00
43185;DHT22;28803;52.308;19.096;2022-08-19T10:43:40;33.00;70.80
43185;DHT22;28803;52.308;19.096;2022-08-19T10:46:12;33.10;69.00
43185;DHT22;28803;52.308;19.096;2022-08-19T10:48:43;33.10;68.10
43185;DHT22;28803;52.308;19.096;2022-08-19T10:51:11;33.00;69.60
43185;DHT22;28803;52.308;19.096;2022-08-19T10:53:58;33.00;69.90
43185;DHT22;28803;52.308;19.096;2022-08-19T10:56:27;32.90;69.50
43185;DHT22;28803;52.308;19.096;2022-08-19T10:59:14;32.90;70.90
43185;DHT22;28803;52.308;19.096;2022-08-19T11:01:43;33.10;69.80
43185;DHT22;28803;52.308;19.096;2022-08-19T11:04:11;33.20;68.60
43185;DHT22;28803;52.308;19.096;2022-08-19T11:06:41;33.10;69.90
43185;DHT22;28803;52.308;19.096;2022-08-19T11:09:10;32.90;68.80
43185;DHT22;28803;52.308;19.096;2022-08-19T11:11:38;32.60;70.30
43185;DHT22;28803;52.308;19.096;2022-08-19T11:14:11;32.50;71.80
43185;DHT22;28803;52.308;19.096;2022-08-19T11:16:39;32.70;69.80
43185;DHT22;28803;52.308;19.096;2022-08-19T11:19:07;32.70;71.20
43185;DHT22;28803;52.308;19.096;2022-08-19T11:21:38;32.80;71.30
43185;DHT22;28803;52.308;19.096;2022-08-19T11:24:16;32.80;69.70
43185;DHT22;28803;52.308;19.096;2022-08-19T11:26:44;32.70;69.10
43185;DHT22;28803;52.308;19.096;2022-08-19T11:29:12;32.70;69.80
43185;DHT22;28803;52.308;19.096;2022-08-19T11:31:42;32.70;71.40
43185;DHT22;28803;52.308;19.096;2022-08-19T11:34:13;32.70;69.80
43185;DHT22;28803;52.308;19.096;2022-08-19T11:36:43;32.70;70.70
43185;DHT22;28803;52.308;19.096;2022-08-19T11:39:14;32.70;70.40
43185;DHT22;28803;52.308;19.096;2022-08-19T11:41:41;32.60;70.60
43185;DHT22;28803;52.308;19.096;2022-08-19T11:44:08;32.70;72.70
43185;DHT22;28803;52.308;19.096;2022-08-19T11:46:40;32.80;71.10
43185;DHT22;28803;52.308;19.096;2022-08-19T11:49:07;32.70;71.70
43185;DHT22;28803;52.308;19.096;2022-08-19T11:51:40;32.60;70.80
43185;DHT22;28803;52.308;19.096;2022-08-19T11:54:10;32.60;71.10
43185;DHT22;28803;52.308;19.096;2022-08-19T11:56:38;32.50;70.00
43185;DHT22;28803;52.308;19.096;2022-08-19T11:59:06;32.60;73.10
43185;DHT22;28803;52.308;19.096;2022-08-19T12:01:43;32.70;72.30
43185;DHT22;28803;52.308;19.096;2022-08-19T12:04:10;32.90;71.00
43185;DHT22;28803;52.308;19.096;2022-08-19T12:06:39;32.90;71.50
43185;DHT22;28803;52.308;19.096;2022-08-19T12:09:08;33.00;72.10
43185;DHT22;28803;52.308;19.096;2022-08-19T12:11:37;33.20;71.50
43185;DHT22;28803;52.308;19.096;2022-08-19T12:14:05;33.20;71.50
43185;DHT22;28803;52.308;19.096;2022-08-19T12:16:32;33.10;71.40
43185;DHT22;28803;52.308;19.096;2022-08-19T12:19:01;33.20;69.60
43185;DHT22;28803;52.308;19.096;2022-08-19T12:21:33;33.20;70.10
43185;DHT22;28803;52.308;19.096;2022-08-19T12:24:01;33.30;70.40
43185;DHT22;28803;52.308;19.096;2022-08-19T12:26:29;33.30;70.00
43185;DHT22;28803;52.308;19.096;2022-08-19T12:28:59;33.20;69.60
43185;DHT22;28803;52.308;19.096;2022-08-19T12:31:29;33.40;70.80
43185;DHT22;28803;52.308;19.096;2022-08-19T12:33:56;33.40;68.50
43185;DHT22;28803;52.308;19.096;2022-08-19T12:36:24;33.20;68.20
43185;DHT22;28803;52.308;19.096;2022-08-19T12:38:52;33.20;70.40
43185;DHT22;28803;52.308;19.096;2022-08-19T12:41:22;33.10;68.90
43185;DHT22;28803;52.308;19.096;2022-08-19T12:43:49;33.10;68.00
43185;DHT22;28803;52.308;19.096;2022-08-19T12:46:18;33.00;69.10
43185;DHT22;28803;52.308;19.096;2022-08-19T12:48:48;33.00;70.20
43185;DHT22;28803;52.308;19.096;2022-08-19T12:51:21;33.00;69.30
43185;DHT22;28803;52.308;19.096;2022-08-19T12:53:49;33.00;69.10
43185;DHT22;28803;52.308;19.096;2022-08-19T12:56:16;33.10;69.30
43185;DHT22;28803;52.308;19.096;2022-08-19T12:58:49;33.20;69.20
43185;DHT22;28803;52.308;19.096;2022-08-19T13:01:20;33.50;69.80
43185;DHT22;28803;52.308;19.096;2022-08-19T13:03:49;33.70;67.90
43185;DHT22;28803;52.308;19.096;2022-08-19T13:06:18;33.80;67.90
43185;DHT22;28803;52.308;19.096;2022-08-19T13:08:46;33.80;67.60
43185;DHT22;28803;52.308;19.096;2022-08-19T13:11:16;33.90;68.20
43185;DHT22;28803;52.308;19.096;2022-08-19T13:13:45;33.90;67.70
43185;DHT22;28803;52.308;19.096;2022-08-19T13:16:14;33.90;67.70
43185;DHT22;28803;52.308;19.096;2022-08-19T13:18:42;33.90;68.40
43185;DHT22;28803;52.308;19.096;2022-08-19T13:21:10;34.00;67.80
43185;DHT22;28803;52.308;19.096;2022-08-19T13:23:40;34.20;68.30
43185;DHT22;28803;52.308;19.096;2022-08-19T13:26:08;34.50;69.70
43185;DHT22;28803;52.308;19.096;2022-08-19T13:28:36;34.90;67.80
43185;DHT22;28803;52.308;19.096;2022-08-19T13:31:24;34.80;67.60
43185;DHT22;28803;52.308;19.096;2022-08-19T13:34:10;34.50;67.00
43185;DHT22;28803;52.308;19.096;2022-08-19T13:36:38;34.10;67.70
43185;DHT22;28803;52.308;19.096;2022-08-19T13:39:06;33.90;68.20
43185;DHT22;28803;52.308;19.096;2022-08-19T13:41:35;33.50;68.90
43185;DHT22;28803;52.308;19.096;2022-08-19T13:44:04;33.40;69.40
43185;DHT22;28803;52.308;19.096;2022-08-19T13:46:33;33.30;69.00
43185;DHT22;28803;52.308;19.096;2022-08-19T13:49:00;33.20;69.80
43185;DHT22;28803;52.308;19.096;2022-08-19T13:51:27;33.40;70.10
43185;DHT22;28803;52.308;19.096;2022-08-19T13:53:54;33.50;69.60
43185;DHT22;28803;52.308;19.096;2022-08-19T13:56:21;33.60;69.60
43185;DHT22;28803;52.308;19.096;2022-08-19T13:58:53;33.90;70.60
43185;DHT22;28803;52.308;19.096;2022-08-19T14:01:21;33.90;69.10
43185;DHT22;28803;52.308;19.096;2022-08-19T14:03:50;34.00;69.70
43185;DHT22;28803;52.308;19.096;2022-08-19T14:06:17;33.80;69.00
43185;DHT22;28803;52.308;19.096;2022-08-19T14:08:46;33.50;69.50
43185;DHT22;28803;52.308;19.096;2022-08-19T14:11:13;33.30;69.10
43185;DHT22;28803;52.308;19.096;2022-08-19T14:13:41;33.30;69.70
43185;DHT22;28803;52.308;19.096;2022-08-19T14:16:12;33.40;69.20
43185;DHT22;28803;52.308;19.096;2022-08-19T14:18:40;33.50;69.90
43185;DHT22;28803;52.308;19.096;2022-08-19T14:21:08;33.50;69.60
43185;DHT22;28803;52.308;19.096;2022-08-19T14:23:40;33.40;68.70
43185;DHT22;28803;52.308;19.096;2022-08-19T14:26:10;33.10;69.60
43185;DHT22;28803;52.308;19.096;2022-08-19T14:28:38;32.80;69.80
43185;DHT22;28803;52.308;19.096;2022-08-19T14:31:15;32.50;68.10
43185;DHT22;28803;52.308;19.096;2022-08-19T14:33:46;32.30;66.80
43185;DHT22;28803;52.308;19.096;2022-08-19T14:36:14;32.10;65.50
43185;DHT22;28803;52.308;19.096;2022-08-19T14:38:41;32.10;66.50
43185;DHT22;28803;52.308;19.096;2022-08-19T14:41:15;32.20;65.60
43185;DHT22;28803;52.308;19.096;2022-08-19T14:43:45;32.40;66.20
43185;DHT22;28803;52.308;19.096;2022-08-19T14:46:18;32.70;65.40
43185;DHT22;28803;52.308;19.096;2022-08-19T14:48:48;32.70;65.10
43185;DHT22;28803;52.308;19.096;2022-08-19T14:51:20;32.70;64.20
43185;DHT22;28803;52.308;19.096;2022-08-19T14:53:47;32.70;64.70
43185;DHT22;28803;52.308;19.096;2022-08-19T14:56:19;32.80;65.60
43185;DHT22;28803;52.308;19.096;2022-08-19T14:58:47;33.50;64.80
43185;DHT22;28803;52.308;19.096;2022-08-19T15:01:14;34.40;62.40
43185;DHT22;28803;52.308;19.096;2022-08-19T15:03:41;34.80;62.20
43185;DHT22;28803;52.308;19.096;2022-08-19T15:06:09;34.90;61.50
43185;DHT22;28803;52.308;19.096;2022-08-19T15:08:40;34.90;61.20
43185;DHT22;28803;52.308;19.096;2022-08-19T15:11:10;34.70;61.60
43185;DHT22;28803;52.308;19.096;2022-08-19T15:13:37;34.40;63.40
43185;DHT22;28803;52.308;19.096;2022-08-19T15:16:05;34.30;63.40
43185;DHT22;28803;52.308;19.096;2022-08-19T15:18:44;34.10;63.40
43185;DHT22;28803;52.308;19.096;2022-08-19T15:21:13;34.00;64.80
43185;DHT22;28803;52.308;19.096;2022-08-19T15:23:41;33.90;67.00
43185;DHT22;28803;52.308;19.096;2022-08-19T15:26:11;33.70;66.00
43185;DHT22;28803;52.308;19.096;2022-08-19T15:28:42;33.60;64.90
43185;DHT22;28803;52.308;19.096;2022-08-19T15:31:10;33.50;64.30
43185;DHT22;28803;52.308;19.096;2022-08-19T15:33:51;33.50;65.00
43185;DHT22;28803;52.308;19.096;2022-08-19T15:36:18;33.30;65.50
43185;DHT22;28803;52.308;19.096;2022-08-19T15:38:45;33.30;65.70